sensor_id;sensor_type;location;lat;lon;timestamp;P1;durP1;ratioP1;P2;durP2;ratioP2
19944;SDS011;10134;50.952;6.930;2022-07-17T00:00:02;2.75;;;1.38;;
19944;SDS011;10134;50.952;6.930;2022-07-17T00:02:32;4.72;;;1.58;;
19944;SDS011;10134;50.952;6.930;2022-07-17T00:05:00;3.03;;;1.55;;
19944;SDS011;10134;50.952;6.930;2022-07-17T00:07:27;3.25;;;1.38;;
19944;SDS011;10134;50.952;6.930;2022-07-17T00:09:54;2.67;;;1.67;;
19944;SDS011;10134;50.952;6.930;2022-07-17T00:12:22;2.60;;;1.52;;
19944;SDS011;10134;50.952;6.930;2022-07-17T00:14:50;2.92;;;1.10;;
19944;SDS011;10134;50.952;6.930;2022-07-17T00:17:18;4.32;;;1.95;;
19944;SDS011;10134;50.952;6.930;2022-07-17T00:19:45;3.25;;;1.65;;
19944;SDS011;10134;50.952;6.930;2022-07-17T00:22:12;3.05;;;1.30;;
19944;SDS011;10134;50.952;6.930;2022-07-17T00:24:39;3.88;;;1.75;;
19944;SDS011;10134;50.952;6.930;2022-07-17T00:27:07;3.45;;;1.83;;
19944;SDS011;10134;50.952;6.930;2022-07-17T00:29:34;4.20;;;2.00;;
19944;SDS011;10134;50.952;6.930;2022-07-17T00:32:01;6.30;;;1.52;;
19944;SDS011;10134;50.952;6.930;2022-07-17T00:34:29;4.70;;;1.80;;
19944;SDS011;10134;50.952;6.930;2022-07-17T00:36:56;4.05;;;1.52;;
19944;SDS011;10134;50.952;6.930;2022-07-17T00:39:23;6.72;;;1.75;;
19944;SDS011;10134;50.952;6.930;2022-07-17T00:41:51;2.35;;;1.20;;
19944;SDS011;10134;50.952;6.930;2022-07-17T00:44:18;3.20;;;1.30;;
19944;SDS011;10134;50.952;6.930;2022-07-17T00:46:46;8.48;;;1.90;;
19944;SDS011;10134;50.952;6.930;2022-07-17T00:49:13;4.53;;;1.48;;
19944;SDS011;10134;50.952;6.930;2022-07-17T00:51:40;3.78;;;1.48;;
19944;SDS011;10134;50.952;6.930;2022-07-17T00:54:08;5.63;;;1.38;;
19944;SDS011;10134;50.952;6.930;2022-07-17T00:56:37;4.28;;;1.50;;
19944;SDS011;10134;50.952;6.930;2022-07-17T00:59:06;6.85;;;1.63;;
19944;SDS011;10134;50.952;6.930;2022-07-17T01:01:34;2.90;;;1.40;;
19944;SDS011;10134;50.952;6.930;2022-07-17T01:04:01;3.13;;;1.55;;
19944;SDS011;10134;50.952;6.930;2022-07-17T01:06:30;5.95;;;1.35;;
19944;SDS011;10134;50.952;6.930;2022-07-17T01:08:57;3.97;;;1.67;;
19944;SDS011;10134;50.952;6.930;2022-07-17T01:11:24;4.85;;;2.00;;
19944;SDS011;10134;50.952;6.930;2022-07-17T01:13:52;6.20;;;1.42;;
19944;SDS011;10134;50.952;6.930;2022-07-17T01:16:21;4.47;;;1.67;;
19944;SDS011;10134;50.952;6.930;2022-07-17T01:18:48;5.50;;;1.70;;
19944;SDS011;10134;50.952;6.930;2022-07-17T01:21:16;4.10;;;1.88;;
19944;SDS011;10134;50.952;6.930;2022-07-17T01:23:43;5.88;;;2.00;;
19944;SDS011;10134;50.952;6.930;2022-07-17T01:26:11;2.42;;;1.55;;
19944;SDS011;10134;50.952;6.930;2022-07-17T01:28:39;4.53;;;1.50;;
19944;SDS011;10134;50.952;6.930;2022-07-17T01:31:06;3.55;;;1.55;;
19944;SDS011;10134;50.952;6.930;2022-07-17T01:33:33;4.00;;;1.80;;
19944;SDS011;10134;50.952;6.930;2022-07-17T01:36:00;4.15;;;1.50;;
19944;SDS011;10134;50.952;6.930;2022-07-17T01:38:28;3.20;;;1.60;;
19944;SDS011;10134;50.952;6.930;2022-07-17T01:40:55;3.28;;;1.70;;
19944;SDS011;10134;50.952;6.930;2022-07-17T01:43:22;4.70;;;2.13;;
19944;SDS011;10134;50.952;6.930;2022-07-17T01:45:50;3.80;;;1.45;;
19944;SDS011;10134;50.952;6.930;2022-07-17T01:48:24;5.30;;;2.00;;
19944;SDS011;10134;50.952;6.930;2022-07-17T01:50:56;6.82;;;2.08;;
19944;SDS011;10134;50.952;6.930;2022-07-17T01:53:24;6.35;;;1.60;;
19944;SDS011;10134;50.952;6.930;2022-07-17T01:55:51;8.60;;;2.50;;
19944;SDS011;10134;50.952;6.930;2022-07-17T01:58:18;4.88;;;1.77;;
19944;SDS011;10134;50.952;6.930;2022-07-17T02:00:46;4.32;;;2.08;;
19944;SDS011;10134;50.952;6.930;2022-07-17T02:03:13;5.35;;;1.83;;
19944;SDS011;10134;50.952;6.930;2022-07-17T02:05:40;4.25;;;1.52;;
19944;SDS011;10134;50.952;6.930;2022-07-17T02:08:08;4.72;;;1.70;;
19944;SDS011;10134;50.952;6.930;2022-07-17T02:10:35;3.42;;;1.95;;
19944;SDS011;10134;50.952;6.930;2022-07-17T02:13:03;3.80;;;1.80;;
19944;SDS011;10134;50.952;6.930;2022-07-17T02:15:30;5.43;;;1.60;;
19944;SDS011;10134;50.952;6.930;2022-07-17T02:17:58;4.88;;;1.95;;
19944;SDS011;10134;50.952;6.930;2022-07-17T02:20:25;2.20;;;1.50;;
19944;SDS011;10134;50.952;6.930;2022-07-17T02:22:53;5.10;;;1.83;;
19944;SDS011;10134;50.952;6.930;2022-07-17T02:25:20;5.82;;;1.85;;
19944;SDS011;10134;50.952;6.930;2022-07-17T02:27:48;9.52;;;2.08;;
19944;SDS011;10134;50.952;6.930;2022-07-17T02:30:16;3.10;;;1.92;;
19944;SDS011;10134;50.952;6.930;2022-07-17T02:32:44;3.28;;;1.75;;
19944;SDS011;10134;50.952;6.930;2022-07-17T02:35:12;3.38;;;1.70;;
19944;SDS011;10134;50.952;6.930;2022-07-17T02:37:40;6.05;;;2.00;;
19944;SDS011;10134;50.952;6.930;2022-07-17T02:40:12;6.25;;;1.92;;
19944;SDS011;10134;50.952;6.930;2022-07-17T02:42:40;2.90;;;1.52;;
19944;SDS011;10134;50.952;6.930;2022-07-17T02:45:07;3.72;;;1.75;;
19944;SDS011;10134;50.952;6.930;2022-07-17T02:47:35;3.95;;;1.48;;
19944;SDS011;10134;50.952;6.930;2022-07-17T02:50:04;3.13;;;1.60;;
19944;SDS011;10134;50.952;6.930;2022-07-17T02:52:33;2.97;;;1.70;;
19944;SDS011;10134;50.952;6.930;2022-07-17T02:55:01;3.53;;;2.05;;
19944;SDS011;10134;50.952;6.930;2022-07-17T02:57:28;5.60;;;1.75;;
19944;SDS011;10134;50.952;6.930;2022-07-17T02:59:55;3.97;;;1.90;;
19944;SDS011;10134;50.952;6.930;2022-07-17T03:02:23;3.85;;;2.03;;
19944;SDS011;10134;50.952;6.930;2022-07-17T03:04:50;5.63;;;1.67;;
19944;SDS011;10134;50.952;6.930;2022-07-17T03:07:17;4.85;;;1.80;;
19944;SDS011;10134;50.952;6.930;2022-07-17T03:09:44;3.88;;;1.80;;
19944;SDS011;10134;50.952;6.930;2022-07-17T03:12:12;4.47;;;2.28;;
19944;SDS011;10134;50.952;6.930;2022-07-17T03:14:39;3.50;;;1.40;;
19944;SDS011;10134;50.952;6.930;2022-07-17T03:17:06;3.40;;;1.85;;
19944;SDS011;10134;50.952;6.930;2022-07-17T03:19:35;3.25;;;1.77;;
19944;SDS011;10134;50.952;6.930;2022-07-17T03:22:03;4.10;;;1.85;;
19944;SDS011;10134;50.952;6.930;2022-07-17T03:24:31;2.85;;;2.00;;
19944;SDS011;10134;50.952;6.930;2022-07-17T03:26:58;6.07;;;2.00;;
19944;SDS011;10134;50.952;6.930;2022-07-17T03:29:26;4.25;;;2.13;;
19944;SDS011;10134;50.952;6.930;2022-07-17T03:31:54;4.15;;;1.67;;
19944;SDS011;10134;50.952;6.930;2022-07-17T03:34:21;3.97;;;1.98;;
19944;SDS011;10134;50.952;6.930;2022-07-17T03:36:48;3.42;;;2.22;;
19944;SDS011;10134;50.952;6.930;2022-07-17T03:39:16;3.30;;;1.80;;
19944;SDS011;10134;50.952;6.930;2022-07-17T03:41:43;4.40;;;1.90;;
19944;SDS011;10134;50.952;6.930;2022-07-17T03:44:10;5.50;;;1.90;;
19944;SDS011;10134;50.952;6.930;2022-07-17T03:46:37;5.38;;;1.88;;
19944;SDS011;10134;50.952;6.930;2022-07-17T03:49:05;3.28;;;1.73;;
19944;SDS011;10134;50.952;6.930;2022-07-17T03:51:32;5.18;;;2.50;;
19944;SDS011;10134;50.952;6.930;2022-07-17T03:54:00;7.22;;;1.73;;
19944;SDS011;10134;50.952;6.930;2022-07-17T03:56:27;7.45;;;2.20;;
19944;SDS011;10134;50.952;6.930;2022-07-17T03:58:54;4.32;;;2.22;;
19944;SDS011;10134;50.952;6.930;2022-07-17T04:01:22;6.85;;;2.10;;
19944;SDS011;10134;50.952;6.930;2022-07-17T04:03:49;3.20;;;1.73;;
19944;SDS011;10134;50.952;6.930;2022-07-17T04:06:16;5.60;;;2.00;;
19944;SDS011;10134;50.952;6.930;2022-07-17T04:08:44;3.67;;;2.28;;
19944;SDS011;10134;50.952;6.930;2022-07-17T04:11:11;2.50;;;2.03;;
19944;SDS011;10134;50.952;6.930;2022-07-17T04:13:38;7.03;;;2.40;;
19944;SDS011;10134;50.952;6.930;2022-07-17T04:16:06;5.22;;;2.17;;
19944;SDS011;10134;50.952;6.930;2022-07-17T04:18:34;5.18;;;2.05;;
19944;SDS011;10134;50.952;6.930;2022-07-17T04:21:05;4.25;;;2.40;;
19944;SDS011;10134;50.952;6.930;2022-07-17T04:23:34;3.45;;;2.00;;
19944;SDS011;10134;50.952;6.930;2022-07-17T04:26:03;10.02;;;2.70;;
19944;SDS011;10134;50.952;6.930;2022-07-17T04:28:37;3.72;;;2.08;;
19944;SDS011;10134;50.952;6.930;2022-07-17T04:31:05;7.35;;;2.30;;
19944;SDS011;10134;50.952;6.930;2022-07-17T04:33:33;3.65;;;2.40;;
19944;SDS011;10134;50.952;6.930;2022-07-17T04:36:00;5.10;;;2.40;;
19944;SDS011;10134;50.952;6.930;2022-07-17T04:38:28;5.32;;;2.35;;
19944;SDS011;10134;50.952;6.930;2022-07-17T04:40:55;4.63;;;2.05;;
19944;SDS011;10134;50.952;6.930;2022-07-17T04:43:23;4.03;;;2.33;;
19944;SDS011;10134;50.952;6.930;2022-07-17T04:45:51;2.90;;;1.75;;
19944;SDS011;10134;50.952;6.930;2022-07-17T04:48:18;5.72;;;2.83;;
19944;SDS011;10134;50.952;6.930;2022-07-17T04:50:46;4.75;;;2.58;;
19944;SDS011;10134;50.952;6.930;2022-07-17T04:53:13;5.47;;;2.28;;
19944;SDS011;10134;50.952;6.930;2022-07-17T04:55:47;6.25;;;2.40;;
19944;SDS011;10134;50.952;6.930;2022-07-17T04:58:14;3.40;;;2.50;;
19944;SDS011;10134;50.952;6.930;2022-07-17T05:00:42;5.65;;;2.63;;
19944;SDS011;10134;50.952;6.930;2022-07-17T05:03:09;4.45;;;2.60;;
19944;SDS011;10134;50.952;6.930;2022-07-17T05:05:36;6.57;;;2.88;;
19944;SDS011;10134;50.952;6.930;2022-07-17T05:08:06;6.32;;;2.40;;
19944;SDS011;10134;50.952;6.930;2022-07-17T05:10:34;4.47;;;2.53;;
19944;SDS011;10134;50.952;6.930;2022-07-17T05:13:01;4.70;;;2.40;;
19944;SDS011;10134;50.952;6.930;2022-07-17T05:15:29;6.18;;;2.55;;
19944;SDS011;10134;50.952;6.930;2022-07-17T05:18:05;5.25;;;2.40;;
19944;SDS011;10134;50.952;6.930;2022-07-17T05:20:33;5.03;;;2.38;;
19944;SDS011;10134;50.952;6.930;2022-07-17T05:23:00;5.20;;;2.65;;
19944;SDS011;10134;50.952;6.930;2022-07-17T05:25:28;7.53;;;2.08;;
19944;SDS011;10134;50.952;6.930;2022-07-17T05:27:55;3.60;;;1.90;;
19944;SDS011;10134;50.952;6.930;2022-07-17T05:30:22;6.00;;;2.28;;
19944;SDS011;10134;50.952;6.930;2022-07-17T05:32:49;4.45;;;2.33;;
19944;SDS011;10134;50.952;6.930;2022-07-17T05:35:17;6.07;;;2.30;;
19944;SDS011;10134;50.952;6.930;2022-07-17T05:37:44;2.65;;;2.13;;
19944;SDS011;10134;50.952;6.930;2022-07-17T05:40:12;7.95;;;2.88;;
19944;SDS011;10134;50.952;6.930;2022-07-17T05:42:39;3.95;;;2.13;;
19944;SDS011;10134;50.952;6.930;2022-07-17T05:45:06;5.28;;;2.30;;
19944;SDS011;10134;50.952;6.930;2022-07-17T05:47:34;2.75;;;1.90;;
19944;SDS011;10134;50.952;6.930;2022-07-17T05:50:01;4.82;;;2.00;;
19944;SDS011;10134;50.952;6.930;2022-07-17T05:52:29;3.13;;;2.25;;
19944;SDS011;10134;50.952;6.930;2022-07-17T05:54:56;3.85;;;2.42;;
19944;SDS011;10134;50.952;6.930;2022-07-17T05:57:23;3.95;;;2.10;;
19944;SDS011;10134;50.952;6.930;2022-07-17T05:59:50;5.63;;;2.28;;
19944;SDS011;10134;50.952;6.930;2022-07-17T06:02:18;5.22;;;2.53;;
19944;SDS011;10134;50.952;6.930;2022-07-17T06:04:45;3.95;;;2.30;;
19944;SDS011;10134;50.952;6.930;2022-07-17T06:07:12;4.75;;;3.22;;
19944;SDS011;10134;50.952;6.930;2022-07-17T06:09:40;4.88;;;2.35;;
19944;SDS011;10134;50.952;6.930;2022-07-17T06:12:07;4.57;;;2.22;;
19944;SDS011;10134;50.952;6.930;2022-07-17T06:14:34;6.57;;;2.53;;
19944;SDS011;10134;50.952;6.930;2022-07-17T06:17:02;4.25;;;2.50;;
19944;SDS011;10134;50.952;6.930;2022-07-17T06:19:29;6.18;;;2.65;;
19944;SDS011;10134;50.952;6.930;2022-07-17T06:21:56;4.38;;;2.28;;
19944;SDS011;10134;50.952;6.930;2022-07-17T06:24:23;3.72;;;2.50;;
19944;SDS011;10134;50.952;6.930;2022-07-17T06:26:51;5.28;;;2.55;;
19944;SDS011;10134;50.952;6.930;2022-07-17T06:29:18;3.22;;;2.53;;
19944;SDS011;10134;50.952;6.930;2022-07-17T06:31:45;5.85;;;2.10;;
19944;SDS011;10134;50.952;6.930;2022-07-17T06:34:13;5.70;;;2.58;;
19944;SDS011;10134;50.952;6.930;2022-07-17T06:36:40;5.45;;;2.40;;
19944;SDS011;10134;50.952;6.930;2022-07-17T06:39:07;7.38;;;3.20;;
19944;SDS011;10134;50.952;6.930;2022-07-17T06:41:34;3.55;;;2.60;;
19944;SDS011;10134;50.952;6.930;2022-07-17T06:44:03;7.22;;;2.92;;
19944;SDS011;10134;50.952;6.930;2022-07-17T06:46:30;3.08;;;2.30;;
19944;SDS011;10134;50.952;6.930;2022-07-17T06:48:58;3.70;;;2.50;;
19944;SDS011;10134;50.952;6.930;2022-07-17T06:51:25;6.35;;;2.53;;
19944;SDS011;10134;50.952;6.930;2022-07-17T06:53:53;3.67;;;2.25;;
19944;SDS011;10134;50.952;6.930;2022-07-17T06:56:20;4.88;;;2.50;;
19944;SDS011;10134;50.952;6.930;2022-07-17T06:58:47;3.38;;;2.15;;
19944;SDS011;10134;50.952;6.930;2022-07-17T07:01:15;5.85;;;2.38;;
19944;SDS011;10134;50.952;6.930;2022-07-17T07:03:42;2.85;;;1.83;;
19944;SDS011;10134;50.952;6.930;2022-07-17T07:06:09;4.15;;;1.98;;
19944;SDS011;10134;50.952;6.930;2022-07-17T07:08:37;3.67;;;1.55;;
19944;SDS011;10134;50.952;6.930;2022-07-17T07:11:04;5.65;;;1.88;;
19944;SDS011;10134;50.952;6.930;2022-07-17T07:13:31;3.53;;;1.67;;
19944;SDS011;10134;50.952;6.930;2022-07-17T07:15:59;3.78;;;1.40;;
19944;SDS011;10134;50.952;6.930;2022-07-17T07:18:27;2.60;;;1.42;;
19944;SDS011;10134;50.952;6.930;2022-07-17T07:20:54;5.82;;;1.63;;
19944;SDS011;10134;50.952;6.930;2022-07-17T07:23:21;3.28;;;1.88;;
19944;SDS011;10134;50.952;6.930;2022-07-17T07:25:48;2.67;;;1.80;;
19944;SDS011;10134;50.952;6.930;2022-07-17T07:28:16;2.90;;;1.67;;
19944;SDS011;10134;50.952;6.930;2022-07-17T07:30:43;3.42;;;1.65;;
19944;SDS011;10134;50.952;6.930;2022-07-17T07:33:11;3.67;;;1.50;;
19944;SDS011;10134;50.952;6.930;2022-07-17T07:35:39;4.75;;;1.65;;
19944;SDS011;10134;50.952;6.930;2022-07-17T07:38:08;2.72;;;1.58;;
19944;SDS011;10134;50.952;6.930;2022-07-17T07:40:36;4.97;;;1.80;;
19944;SDS011;10134;50.952;6.930;2022-07-17T07:43:03;5.30;;;1.58;;
19944;SDS011;10134;50.952;6.930;2022-07-17T07:45:31;2.22;;;1.50;;
19944;SDS011;10134;50.952;6.930;2022-07-17T07:47:58;3.63;;;1.63;;
19944;SDS011;10134;50.952;6.930;2022-07-17T07:50:26;3.60;;;1.65;;
19944;SDS011;10134;50.952;6.930;2022-07-17T07:52:55;4.18;;;1.67;;
19944;SDS011;10134;50.952;6.930;2022-07-17T07:55:22;6.55;;;1.75;;
19944;SDS011;10134;50.952;6.930;2022-07-17T07:57:49;4.32;;;2.28;;
19944;SDS011;10134;50.952;6.930;2022-07-17T08:00:27;2.65;;;1.40;;
19944;SDS011;10134;50.952;6.930;2022-07-17T08:02:54;3.08;;;1.58;;
19944;SDS011;10134;50.952;6.930;2022-07-17T08:05:22;2.83;;;1.50;;
19944;SDS011;10134;50.952;6.930;2022-07-17T08:07:49;4.70;;;1.70;;
19944;SDS011;10134;50.952;6.930;2022-07-17T08:10:16;3.88;;;1.20;;
19944;SDS011;10134;50.952;6.930;2022-07-17T08:12:44;3.05;;;1.90;;
19944;SDS011;10134;50.952;6.930;2022-07-17T08:15:17;3.28;;;1.27;;
19944;SDS011;10134;50.952;6.930;2022-07-17T08:17:45;5.20;;;1.55;;
19944;SDS011;10134;50.952;6.930;2022-07-17T08:20:14;3.95;;;1.52;;
19944;SDS011;10134;50.952;6.930;2022-07-17T08:22:42;3.85;;;1.70;;
19944;SDS011;10134;50.952;6.930;2022-07-17T08:25:30;3.55;;;1.70;;
19944;SDS011;10134;50.952;6.930;2022-07-17T08:27:58;2.85;;;1.45;;
19944;SDS011;10134;50.952;6.930;2022-07-17T08:30:25;2.50;;;1.60;;
19944;SDS011;10134;50.952;6.930;2022-07-17T08:32:53;4.13;;;1.42;;
19944;SDS011;10134;50.952;6.930;2022-07-17T08:35:20;8.30;;;1.75;;
19944;SDS011;10134;50.952;6.930;2022-07-17T08:37:51;3.13;;;1.30;;
19944;SDS011;10134;50.952;6.930;2022-07-17T08:40:23;2.90;;;1.50;;
19944;SDS011;10134;50.952;6.930;2022-07-17T08:42:53;4.20;;;1.50;;
19944;SDS011;10134;50.952;6.930;2022-07-17T08:45:22;7.57;;;1.25;;
19944;SDS011;10134;50.952;6.930;2022-07-17T08:47:50;1.45;;;1.15;;
19944;SDS011;10134;50.952;6.930;2022-07-17T08:50:23;2.70;;;1.15;;
19944;SDS011;10134;50.952;6.930;2022-07-17T08:52:54;5.18;;;1.85;;
19944;SDS011;10134;50.952;6.930;2022-07-17T08:55:22;2.78;;;1.38;;
19944;SDS011;10134;50.952;6.930;2022-07-17T08:57:49;3.00;;;1.30;;
19944;SDS011;10134;50.952;6.930;2022-07-17T09:00:18;2.90;;;1.55;;
19944;SDS011;10134;50.952;6.930;2022-07-17T09:02:54;5.57;;;1.30;;
19944;SDS011;10134;50.952;6.930;2022-07-17T09:05:30;3.20;;;1.17;;
19944;SDS011;10134;50.952;6.930;2022-07-17T09:08:00;4.35;;;0.93;;
19944;SDS011;10134;50.952;6.930;2022-07-17T09:10:41;3.65;;;1.00;;
19944;SDS011;10134;50.952;6.930;2022-07-17T09:15:53;2.05;;;1.00;;
19944;SDS011;10134;50.952;6.930;2022-07-17T09:18:24;4.22;;;1.40;;
19944;SDS011;10134;50.952;6.930;2022-07-17T09:20:57;3.17;;;1.10;;
19944;SDS011;10134;50.952;6.930;2022-07-17T09:23:25;4.65;;;1.23;;
19944;SDS011;10134;50.952;6.930;2022-07-17T09:25:54;2.80;;;1.25;;
19944;SDS011;10134;50.952;6.930;2022-07-17T09:28:23;6.95;;;1.20;;
19944;SDS011;10134;50.952;6.930;2022-07-17T09:30:51;3.55;;;1.25;;
19944;SDS011;10134;50.952;6.930;2022-07-17T09:33:23;5.15;;;1.27;;
19944;SDS011;10134;50.952;6.930;2022-07-17T09:38:26;2.95;;;1.00;;
19944;SDS011;10134;50.952;6.930;2022-07-17T09:43:55;4.53;;;1.25;;
19944;SDS011;10134;50.952;6.930;2022-07-17T09:46:26;4.03;;;1.40;;
19944;SDS011;10134;50.952;6.930;2022-07-17T09:49:00;2.85;;;1.40;;
19944;SDS011;10134;50.952;6.930;2022-07-17T09:51:33;3.95;;;1.20;;
19944;SDS011;10134;50.952;6.930;2022-07-17T09:54:04;3.47;;;1.48;;
19944;SDS011;10134;50.952;6.930;2022-07-17T09:56:34;3.78;;;1.00;;
19944;SDS011;10134;50.952;6.930;2022-07-17T09:59:06;3.58;;;1.23;;
19944;SDS011;10134;50.952;6.930;2022-07-17T10:01:38;2.72;;;1.38;;
19944;SDS011;10134;50.952;6.930;2022-07-17T10:04:09;2.60;;;1.25;;
19944;SDS011;10134;50.952;6.930;2022-07-17T10:06:37;2.88;;;1.08;;
19944;SDS011;10134;50.952;6.930;2022-07-17T10:09:05;1.55;;;0.80;;
19944;SDS011;10134;50.952;6.930;2022-07-17T10:11:36;4.90;;;2.53;;
19944;SDS011;10134;50.952;6.930;2022-07-17T10:14:13;2.47;;;1.73;;
19944;SDS011;10134;50.952;6.930;2022-07-17T10:16:41;4.43;;;1.27;;
19944;SDS011;10134;50.952;6.930;2022-07-17T10:19:18;2.47;;;0.90;;
19944;SDS011;10134;50.952;6.930;2022-07-17T10:22:00;5.55;;;1.20;;
19944;SDS011;10134;50.952;6.930;2022-07-17T10:24:31;4.43;;;1.05;;
19944;SDS011;10134;50.952;6.930;2022-07-17T10:26:59;3.00;;;1.48;;
19944;SDS011;10134;50.952;6.930;2022-07-17T10:29:34;3.30;;;1.10;;
19944;SDS011;10134;50.952;6.930;2022-07-17T10:32:16;6.15;;;1.92;;
19944;SDS011;10134;50.952;6.930;2022-07-17T10:34:46;3.50;;;2.28;;
19944;SDS011;10134;50.952;6.930;2022-07-17T10:37:26;4.70;;;1.38;;
19944;SDS011;10134;50.952;6.930;2022-07-17T10:48:06;2.28;;;1.40;;
19944;SDS011;10134;50.952;6.930;2022-07-17T10:50:39;4.10;;;1.27;;
19944;SDS011;10134;50.952;6.930;2022-07-17T10:53:08;4.43;;;1.40;;
19944;SDS011;10134;50.952;6.930;2022-07-17T10:55:42;3.35;;;1.00;;
19944;SDS011;10134;50.952;6.930;2022-07-17T10:58:21;1.95;;;1.25;;
19944;SDS011;10134;50.952;6.930;2022-07-17T11:03:40;4.75;;;1.45;;
19944;SDS011;10134;50.952;6.930;2022-07-17T11:06:29;2.38;;;1.23;;
19944;SDS011;10134;50.952;6.930;2022-07-17T11:11:39;4.43;;;1.55;;
19944;SDS011;10134;50.952;6.930;2022-07-17T11:14:12;2.38;;;1.60;;
19944;SDS011;10134;50.952;6.930;2022-07-17T11:17:01;2.97;;;1.10;;
19944;SDS011;10134;50.952;6.930;2022-07-17T11:19:31;2.60;;;1.50;;
19944;SDS011;10134;50.952;6.930;2022-07-17T11:22:07;3.47;;;1.58;;
19944;SDS011;10134;50.952;6.930;2022-07-17T11:24:37;2.58;;;1.27;;
19944;SDS011;10134;50.952;6.930;2022-07-17T11:27:05;5.03;;;1.67;;
19944;SDS011;10134;50.952;6.930;2022-07-17T11:29:36;3.25;;;1.75;;
19944;SDS011;10134;50.952;6.930;2022-07-17T11:32:04;2.65;;;1.60;;
19944;SDS011;10134;50.952;6.930;2022-07-17T11:34:32;5.35;;;1.27;;
19944;SDS011;10134;50.952;6.930;2022-07-17T11:37:00;3.95;;;1.35;;
19944;SDS011;10134;50.952;6.930;2022-07-17T11:39:39;3.58;;;1.67;;
19944;SDS011;10134;50.952;6.930;2022-07-17T11:42:14;4.05;;;1.30;;
19944;SDS011;10134;50.952;6.930;2022-07-17T11:44:45;4.72;;;1.42;;
19944;SDS011;10134;50.952;6.930;2022-07-17T11:47:19;3.92;;;1.13;;
19944;SDS011;10134;50.952;6.930;2022-07-17T11:49:49;4.57;;;1.70;;
19944;SDS011;10134;50.952;6.930;2022-07-17T11:52:17;2.03;;;1.20;;
19944;SDS011;10134;50.952;6.930;2022-07-17T11:54:46;3.13;;;1.60;;
19944;SDS011;10134;50.952;6.930;2022-07-17T11:57:16;3.95;;;1.40;;
19944;SDS011;10134;50.952;6.930;2022-07-17T11:59:45;3.85;;;2.33;;
19944;SDS011;10134;50.952;6.930;2022-07-17T12:02:16;3.13;;;1.60;;
19944;SDS011;10134;50.952;6.930;2022-07-17T12:04:53;4.05;;;1.52;;
19944;SDS011;10134;50.952;6.930;2022-07-17T12:07:23;7.65;;;2.97;;
19944;SDS011;10134;50.952;6.930;2022-07-17T12:10:17;5.68;;;2.00;;
19944;SDS011;10134;50.952;6.930;2022-07-17T12:15:20;4.75;;;1.65;;
19944;SDS011;10134;50.952;6.930;2022-07-17T12:17:48;6.53;;;2.65;;
19944;SDS011;10134;50.952;6.930;2022-07-17T12:20:16;4.05;;;2.13;;
19944;SDS011;10134;50.952;6.930;2022-07-17T12:22:47;5.05;;;1.60;;
19944;SDS011;10134;50.952;6.930;2022-07-17T12:25:26;5.10;;;2.20;;
19944;SDS011;10134;50.952;6.930;2022-07-17T12:27:54;3.90;;;2.33;;
19944;SDS011;10134;50.952;6.930;2022-07-17T12:30:22;5.07;;;2.33;;
19944;SDS011;10134;50.952;6.930;2022-07-17T12:32:49;4.50;;;1.25;;
19944;SDS011;10134;50.952;6.930;2022-07-17T12:35:16;4.95;;;1.77;;
19944;SDS011;10134;50.952;6.930;2022-07-17T12:37:44;2.20;;;1.27;;
19944;SDS011;10134;50.952;6.930;2022-07-17T12:40:11;4.57;;;1.65;;
19944;SDS011;10134;50.952;6.930;2022-07-17T12:42:44;6.68;;;2.80;;
19944;SDS011;10134;50.952;6.930;2022-07-17T12:45:12;4.38;;;2.13;;
19944;SDS011;10134;50.952;6.930;2022-07-17T12:47:39;4.10;;;2.10;;
19944;SDS011;10134;50.952;6.930;2022-07-17T12:50:06;6.28;;;1.40;;
19944;SDS011;10134;50.952;6.930;2022-07-17T12:52:34;6.22;;;1.20;;
19944;SDS011;10134;50.952;6.930;2022-07-17T12:55:02;2.70;;;1.50;;
19944;SDS011;10134;50.952;6.930;2022-07-17T12:57:30;2.65;;;1.63;;
19944;SDS011;10134;50.952;6.930;2022-07-17T12:59:57;1.40;;;0.88;;
19944;SDS011;10134;50.952;6.930;2022-07-17T13:02:24;3.80;;;1.30;;
19944;SDS011;10134;50.952;6.930;2022-07-17T13:04:52;6.07;;;1.13;;
19944;SDS011;10134;50.952;6.930;2022-07-17T13:07:26;4.68;;;1.55;;
19944;SDS011;10134;50.952;6.930;2022-07-17T13:09:54;4.65;;;1.40;;
19944;SDS011;10134;50.952;6.930;2022-07-17T13:12:22;1.30;;;0.80;;
19944;SDS011;10134;50.952;6.930;2022-07-17T13:14:50;3.63;;;1.10;;
19944;SDS011;10134;50.952;6.930;2022-07-17T13:17:17;0.85;;;0.73;;
19944;SDS011;10134;50.952;6.930;2022-07-17T13:19:45;4.18;;;1.35;;
19944;SDS011;10134;50.952;6.930;2022-07-17T13:22:12;3.38;;;1.60;;
19944;SDS011;10134;50.952;6.930;2022-07-17T13:24:39;2.35;;;0.93;;
19944;SDS011;10134;50.952;6.930;2022-07-17T13:27:07;1.95;;;1.10;;
19944;SDS011;10134;50.952;6.930;2022-07-17T13:29:34;6.47;;;1.10;;
19944;SDS011;10134;50.952;6.930;2022-07-17T13:32:01;1.98;;;1.08;;
19944;SDS011;10134;50.952;6.930;2022-07-17T13:34:30;3.88;;;1.40;;
19944;SDS011;10134;50.952;6.930;2022-07-17T13:36:58;3.05;;;1.30;;
19944;SDS011;10134;50.952;6.930;2022-07-17T13:39:31;1.48;;;0.90;;
19944;SDS011;10134;50.952;6.930;2022-07-17T13:41:58;2.10;;;0.90;;
19944;SDS011;10134;50.952;6.930;2022-07-17T13:44:26;2.50;;;1.30;;
19944;SDS011;10134;50.952;6.930;2022-07-17T13:46:53;4.70;;;1.50;;
19944;SDS011;10134;50.952;6.930;2022-07-17T13:49:21;5.47;;;1.30;;
19944;SDS011;10134;50.952;6.930;2022-07-17T13:51:49;3.05;;;1.23;;
19944;SDS011;10134;50.952;6.930;2022-07-17T13:54:16;1.85;;;1.02;;
19944;SDS011;10134;50.952;6.930;2022-07-17T13:56:43;4.55;;;1.30;;
19944;SDS011;10134;50.952;6.930;2022-07-17T13:59:11;2.00;;;0.93;;
19944;SDS011;10134;50.952;6.930;2022-07-17T14:01:38;3.42;;;1.05;;
19944;SDS011;10134;50.952;6.930;2022-07-17T14:04:05;3.22;;;1.05;;
19944;SDS011;10134;50.952;6.930;2022-07-17T14:06:33;2.35;;;1.10;;
19944;SDS011;10134;50.952;6.930;2022-07-17T14:09:00;2.47;;;1.13;;
19944;SDS011;10134;50.952;6.930;2022-07-17T14:11:28;2.45;;;1.30;;
19944;SDS011;10134;50.952;6.930;2022-07-17T14:13:56;1.67;;;1.00;;
19944;SDS011;10134;50.952;6.930;2022-07-17T14:16:23;2.28;;;1.10;;
19944;SDS011;10134;50.952;6.930;2022-07-17T14:18:51;2.60;;;1.30;;
19944;SDS011;10134;50.952;6.930;2022-07-17T14:21:31;2.97;;;1.30;;
19944;SDS011;10134;50.952;6.930;2022-07-17T14:24:03;3.20;;;1.33;;
19944;SDS011;10134;50.952;6.930;2022-07-17T14:26:32;2.05;;;1.30;;
19944;SDS011;10134;50.952;6.930;2022-07-17T14:29:00;3.60;;;1.05;;
19944;SDS011;10134;50.952;6.930;2022-07-17T14:31:28;6.35;;;1.30;;
19944;SDS011;10134;50.952;6.930;2022-07-17T14:33:56;4.50;;;1.10;;
19944;SDS011;10134;50.952;6.930;2022-07-17T14:36:23;2.30;;;1.13;;
19944;SDS011;10134;50.952;6.930;2022-07-17T14:38:50;2.30;;;1.05;;
19944;SDS011;10134;50.952;6.930;2022-07-17T14:41:18;1.70;;;0.98;;
19944;SDS011;10134;50.952;6.930;2022-07-17T14:43:46;1.08;;;0.98;;
19944;SDS011;10134;50.952;6.930;2022-07-17T14:46:13;3.17;;;1.35;;
19944;SDS011;10134;50.952;6.930;2022-07-17T14:48:41;2.83;;;1.60;;
19944;SDS011;10134;50.952;6.930;2022-07-17T14:51:08;2.80;;;1.08;;
19944;SDS011;10134;50.952;6.930;2022-07-17T14:53:36;7.88;;;2.08;;
19944;SDS011;10134;50.952;6.930;2022-07-17T14:56:03;1.70;;;0.90;;
19944;SDS011;10134;50.952;6.930;2022-07-17T14:58:31;4.00;;;1.02;;
19944;SDS011;10134;50.952;6.930;2022-07-17T15:00:58;13.35;;;1.05;;
19944;SDS011;10134;50.952;6.930;2022-07-17T15:03:30;5.18;;;1.35;;
19944;SDS011;10134;50.952;6.930;2022-07-17T15:05:58;2.88;;;1.48;;
19944;SDS011;10134;50.952;6.930;2022-07-17T15:08:25;3.25;;;0.98;;
19944;SDS011;10134;50.952;6.930;2022-07-17T15:10:53;2.67;;;1.13;;
19944;SDS011;10134;50.952;6.930;2022-07-17T15:13:20;4.78;;;1.33;;
19944;SDS011;10134;50.952;6.930;2022-07-17T15:15:47;3.58;;;1.15;;
19944;SDS011;10134;50.952;6.930;2022-07-17T15:18:15;2.55;;;1.20;;
19944;SDS011;10134;50.952;6.930;2022-07-17T15:20:42;3.08;;;1.30;;